Time;durP1;ratioP1;P1;durP2;ratioP2;P2;SDS_P1;SDS_P2;PMS_P1;PMS_P2;Temp;Humidity;BMP_temperature;BMP_pressure;BME280_temperature;BME280_humidity;BME280_pressure;Samples;Min_cycle;Max_cycle;Signal;HPM_P1;HPM_P2
2023/06/10 13:53:39;;;;;;;;;;;;;;;37.56;35.27;98702.44;5065294;27;19928;-77
2023/06/10 13:56:04;;;;;;;;;;;;;;;38.46;34.54;98706.63;5056488;28;19954;-77
2023/06/10 13:58:29;;;;;;;;;;;;;;;39.89;34.72;98703.88;5052575;28;19921;-77
2023/06/10 14:00:55;;;;;;;;;;;;;;;38.93;37.84;98732.63;5052704;28;20896;-78
2023/06/10 14:03:20;;;;;;;;;;;;;;;39.55;36.08;98704.91;5049533;28;19971;-77
2023/06/10 14:05:45;;;;;;;;;;;;;;;42.27;35.25;98693.28;5050859;28;19932;-77
2023/06/10 14:08:11;;;;;;;;;;;;;;;41.23;32.73;98683.88;5051469;28;19920;-78
2023/06/10 14:10:36;;;;;;;;;;;;;;;39.02;34.68;98706.94;5050997;28;20590;-78
2023/06/10 14:13:02;;;;;;;;;;;;;;;40.16;36.62;98708.53;5050405;28;20301;-78
2023/06/10 14:15:27;;;;;;;;;;;;;;;40.22;40.24;98734.53;5049887;28;21382;-77
2023/06/10 14:17:52;;;;;;;;;;;;;;;38.43;36.69;98710.63;5053410;28;19936;-77
2023/06/10 14:20:17;;;;;;;;;;;;;;;38.21;40.23;98752.63;5052484;28;19921;-77
2023/06/10 14:22:43;;;;;;;;;;;;;;;37.63;39.47;98724.63;5051034;28;20011;-77
2023/06/10 14:25:08;;;;;;;;;;;;;;;42.35;41.19;98719.81;5050533;28;19917;-77
2023/06/10 14:27:33;;;;;;;;;;;;;;;38.99;40.65;98748.66;5050561;28;20007;-77
2023/06/10 14:29:58;;;;;;;;;;;;;;;40.69;35.80;98699.03;5052911;28;19931;-77
2023/06/10 14:32:24;;;;;;;;;;;;;;;40.13;34.43;98687.47;5053432;28;19925;-77
2023/06/10 14:34:49;;;;;;;;;;;;;;;41.57;35.82;98700.69;5051803;28;19971;-77
2023/06/10 14:37:14;;;;;;;;;;;;;;;41.72;35.38;98687.28;5053440;28;19920;-77
2023/06/10 14:39:39;;;;;;;;;;;;;;;40.90;33.92;98691.13;5054795;28;20136;-77
2023/06/10 14:42:05;;;;;;;;;;;;;;;40.01;35.33;98711.03;5054639;28;19932;-76
2023/06/10 14:44:31;;;;;;;;;;;;;;;40.39;37.28;98706.72;5050532;28;19924;-78
2023/06/10 14:46:56;;;;;;;;;;;;;;;39.52;39.05;98730.47;5054850;28;19912;-77
2023/06/10 14:49:21;;;;;;;;;;;;;;;41.01;36.45;98700.94;5053373;28;19917;-77
2023/06/10 14:51:49;;;;;;;;;;;;;;;38.29;41.13;98739.63;5058886;28;19968;-77
2023/06/10 14:54:14;;;;;;;;;;;;;;;39.27;38.84;98717.38;5073716;28;20623;-77
2023/06/10 14:56:40;;;;;;;;;;;;;;;38.86;41.28;98721.97;5071807;28;19927;-78
2023/06/10 14:59:05;;;;;;;;;;;;;;;40.02;38.90;98707.28;5075179;28;19919;-78
2023/06/10 15:01:30;;;;;;;;;;;;;;;38.04;39.07;98720.25;5072689;28;19920;-77
2023/06/10 15:03:55;;;;;;;;;;;;;;;40.39;37.07;98685.13;5065161;28;19916;-77
2023/06/10 15:06:22;;;;;;;;;;;;;;;39.73;37.08;98694.72;5061557;28;19916;-77
2023/06/10 15:08:50;;;;;;;;;;;;;;;40.32;37.46;98696.09;5060757;28;19916;-77
2023/06/10 15:11:16;;;;;;;;;;;;;;;41.35;34.48;98676.41;5061001;28;19916;-78
2023/06/10 15:13:41;;;;;;;;;;;;;;;39.47;37.78;98701.56;5058760;28;19965;-77
2023/06/10 15:16:06;;;;;;;;;;;;;;;40.84;37.21;98689.44;5059095;28;20573;-77
2023/06/10 15:18:32;;;;;;;;;;;;;;;39.04;40.57;98719.13;5059654;28;20283;-77
2023/06/10 15:20:57;;;;;;;;;;;;;;;40.96;42.06;98711.69;5061515;28;19937;-77
2023/06/10 15:23:22;;;;;;;;;;;;;;;42.76;39.11;98686.69;5059196;28;19921;-78
2023/06/10 15:25:47;;;;;;;;;;;;;;;40.23;38.22;98690.28;5059587;28;19916;-77
2023/06/10 15:28:12;;;;;;;;;;;;;;;41.06;36.41;98674.00;5058901;28;19931;-76
2023/06/10 15:30:38;;;;;;;;;;;;;;;42.34;37.29;98690.34;5058081;28;19939;-77
2023/06/10 15:33:03;;;;;;;;;;;;;;;39.73;35.65;98688.47;5061092;28;20746;-77
2023/06/10 15:35:29;;;;;;;;;;;;;;;39.03;37.38;98679.78;5059274;28;20044;-76
2023/06/10 15:37:54;;;;;;;;;;;;;;;39.46;37.78;98693.72;5056429;28;19925;-77
2023/06/10 15:40:19;;;;;;;;;;;;;;;42.60;39.01;98688.56;5058063;28;19963;-77
2023/06/10 15:42:45;;;;;;;;;;;;;;;40.71;35.23;98661.75;5061083;28;20271;-76
2023/06/10 15:45:10;;;;;;;;;;;;;;;39.85;35.34;98673.06;5060763;28;20011;-76
2023/06/10 15:47:35;;;;;;;;;;;;;;;43.85;34.03;98656.66;5056754;28;20016;-77
2023/06/10 15:50:00;;;;;;;;;;;;;;;42.86;33.90;98672.38;5059239;28;19924;-76
2023/06/10 15:52:26;;;;;;;;;;;;;;;38.73;36.26;98706.09;5059713;28;19924;-77
2023/06/10 15:54:51;;;;;;;;;;;;;;;39.00;35.82;98684.84;5060143;28;19916;-77
2023/06/10 15:57:16;;;;;;;;;;;;;;;40.00;34.57;98667.06;5060646;28;19974;-77
2023/06/10 15:59:41;;;;;;;;;;;;;;;40.17;35.69;98677.81;5059830;28;19920;-77
2023/06/10 16:02:07;;;;;;;;;;;;;;;39.35;36.19;98675.75;5059013;28;19982;-77
2023/06/10 16:04:32;;;;;;;;;;;;;;;42.35;32.76;98651.34;5060433;28;19923;-77
2023/06/10 16:06:57;;;;;;;;;;;;;;;43.93;31.63;98634.41;5059565;28;19919;-77
2023/06/10 16:09:22;;;;;;;;;;;;;;;42.03;32.56;98665.03;5060000;28;19916;-78
2023/06/10 16:11:47;;;;;;;;;;;;;;;43.54;33.42;98653.97;5057255;28;19938;-77
2023/06/10 16:14:13;;;;;;;;;;;;;;;43.30;29.97;98633.97;5059975;28;20413;-77
2023/06/10 16:16:38;;;;;;;;;;;;;;;41.00;32.50;98676.91;5058237;28;19916;-77
2023/06/10 16:19:04;;;;;;;;;;;;;;;40.14;34.32;98683.69;5059297;28;19916;-77
2023/06/10 16:21:30;;;;;;;;;;;;;;;39.31;35.00;98683.50;5060504;28;19916;-77
2023/06/10 16:23:55;;;;;;;;;;;;;;;40.30;34.86;98677.47;5058440;28;20341;-78
2023/06/10 16:26:20;;;;;;;;;;;;;;;42.68;31.17;98644.72;5058853;28;20008;-78
2023/06/10 16:28:46;;;;;;;;;;;;;;;39.48;36.87;98708.59;5059261;28;20334;-77
2023/06/10 16:31:11;;;;;;;;;;;;;;;40.30;38.14;98698.22;5059790;28;20366;-77
2023/06/10 16:33:36;;;;;;;;;;;;;;;36.89;44.56;98743.63;5059273;28;19916;-76
2023/06/10 16:36:02;;;;;;;;;;;;;;;37.22;50.76;98772.75;5058862;28;19920;-77
2023/06/10 16:38:27;;;;;;;;;;;;;;;37.94;48.63;98741.50;5059359;28;20310;-77
2023/06/10 16:40:52;;;;;;;;;;;;;;;37.08;49.61;98754.34;5059160;28;19917;-77
2023/06/10 16:43:18;;;;;;;;;;;;;;;39.46;45.26;98710.72;5059401;28;20015;-77
2023/06/10 16:45:43;;;;;;;;;;;;;;;38.12;49.84;98738.72;5055863;28;19966;-76
2023/06/10 16:48:08;;;;;;;;;;;;;;;36.47;49.51;98748.81;5059262;28;19920;-76
2023/06/10 16:50:33;;;;;;;;;;;;;;;37.44;49.49;98723.88;5059427;28;19946;-77
2023/06/10 16:52:59;;;;;;;;;;;;;;;37.24;52.94;98745.66;5059549;28;19924;-77
2023/06/10 16:55:24;;;;;;;;;;;;;;;37.21;50.97;98738.06;5058135;28;19916;-77
2023/06/10 16:57:49;;;;;;;;;;;;;;;36.92;54.82;98745.84;5056257;28;19922;-77
2023/06/10 17:00:16;;;;;;;;;;;;;;;41.41;49.58;98699.72;5058085;28;19924;-77
2023/06/10 17:02:41;;;;;;;;;;;;;;;37.40;51.27;98736.94;5059246;28;19916;-77
2023/06/10 17:05:06;;;;;;;;;;;;;;;38.66;49.56;98712.47;5059287;28;19916;-77
2023/06/10 17:07:32;;;;;;;;;;;;;;;38.86;48.82;98708.50;5059946;28;19917;-77
2023/06/10 17:09:57;;;;;;;;;;;;;;;38.96;44.44;98705.22;5058149;28;20031;-79
2023/06/10 17:12:22;;;;;;;;;;;;;;;39.29;45.77;98701.78;5058429;28;20344;-77
2023/06/10 17:14:48;;;;;;;;;;;;;;;37.82;49.81;98728.88;5054777;28;20668;-76
2023/06/10 17:17:13;;;;;;;;;;;;;;;38.71;48.72;98735.97;5057644;28;19999;-77
2023/06/10 17:19:38;;;;;;;;;;;;;;;38.99;47.28;98729.00;5058356;28;19926;-77
2023/06/10 17:22:03;;;;;;;;;;;;;;;40.20;43.42;98698.88;5058536;28;19917;-77
2023/06/10 17:24:29;;;;;;;;;;;;;;;37.71;52.24;98756.56;5057847;28;20290;-77
2023/06/10 17:26:54;;;;;;;;;;;;;;;39.25;52.66;98735.63;5058001;28;19925;-77
2023/06/10 17:29:19;;;;;;;;;;;;;;;38.75;50.40;98734.41;5058106;28;19916;-77
2023/06/10 17:31:44;;;;;;;;;;;;;;;36.86;54.67;98757.50;5058338;28;19921;-77
2023/06/10 17:34:10;;;;;;;;;;;;;;;39.05;49.80;98750.38;5058984;28;19916;-77
2023/06/10 17:36:35;;;;;;;;;;;;;;;40.25;43.81;98698.13;5057457;28;19939;-77
2023/06/10 17:39:00;;;;;;;;;;;;;;;37.71;47.44;98748.50;5053788;28;19924;-78
2023/06/10 17:41:26;;;;;;;;;;;;;;;39.41;43.97;98724.09;5057539;28;19928;-79
2023/06/10 17:43:51;;;;;;;;;;;;;;;41.84;38.79;98692.50;5056369;28;20354;-77
2023/06/10 17:46:16;;;;;;;;;;;;;;;39.90;40.13;98710.88;5056862;28;19920;-78
2023/06/10 17:48:41;;;;;;;;;;;;;;;39.66;40.11;98721.00;5056523;28;19921;-77
2023/06/10 17:51:06;;;;;;;;;;;;;;;39.97;40.01;98726.09;5058757;28;19924;-78
2023/06/10 17:53:32;;;;;;;;;;;;;;;40.79;43.34;98738.00;5057055;28;19939;-77
2023/06/10 17:55:57;;;;;;;;;;;;;;;40.12;40.88;98732.53;5055345;28;19968;-77
2023/06/10 17:58:23;;;;;;;;;;;;;;;40.02;41.11;98728.84;5058135;28;19916;-77
2023/06/10 18:00:48;;;;;;;;;;;;;;;40.40;39.32;98721.84;5056273;28;19920;-77
2023/06/10 18:03:16;;;;;;;;;;;;;;;40.00;42.50;98745.28;5057814;28;19942;-77
2023/06/10 18:05:42;;;;;;;;;;;;;;;39.13;44.59;98753.75;5058553;28;20342;-77
2023/06/10 18:08:07;;;;;;;;;;;;;;;39.46;42.08;98750.31;5056837;28;19927;-78
2023/06/10 18:10:32;;;;;;;;;;;;;;;40.24;41.19;98732.41;5057142;28;20500;-78
2023/06/10 18:12:58;;;;;;;;;;;;;;;37.31;46.48;98786.66;5056698;28;19925;-77
2023/06/10 18:15:23;;;;;;;;;;;;;;;37.43;44.58;98763.38;5055442;28;19920;-77
2023/06/10 18:17:48;;;;;;;;;;;;;;;37.77;45.48;98757.47;5055556;28;20007;-77
2023/06/10 18:20:13;;;;;;;;;;;;;;;38.42;46.25;98761.97;5057150;28;20010;-77
2023/06/10 18:22:39;;;;;;;;;;;;;;;37.04;45.33;98767.38;5055310;28;19920;-78
2023/06/10 18:25:04;;;;;;;;;;;;;;;37.41;49.32;98778.88;5058348;28;19970;-77
2023/06/10 18:27:33;;;;;;;;;;;;;;;39.07;42.23;98732.13;5056851;28;20302;-77
2023/06/10 18:29:58;;;;;;;;;;;;;;;35.63;49.94;98791.22;5056776;28;19924;-78
2023/06/10 18:32:23;;;;;;;;;;;;;;;38.73;42.70;98738.41;5057608;28;19935;-77
2023/06/10 18:34:50;;;;;;;;;;;;;;;38.52;47.23;98764.91;5054945;28;20003;-78
2023/06/10 18:37:16;;;;;;;;;;;;;;;37.45;43.41;98761.28;5056667;28;19920;-78
2023/06/10 18:39:41;;;;;;;;;;;;;;;38.84;46.48;98764.47;5058661;28;19939;-77
2023/06/10 18:42:07;;;;;;;;;;;;;;;38.12;44.92;98765.63;5060825;28;20014;-77
2023/06/10 18:44:32;;;;;;;;;;;;;;;37.52;45.93;98771.91;5063008;28;19916;-77
2023/06/10 18:46:57;;;;;;;;;;;;;;;36.26;46.97;98787.63;5058273;28;19924;-77
2023/06/10 18:49:23;;;;;;;;;;;;;;;38.61;41.47;98741.94;5059751;28;19916;-78
2023/06/10 18:51:48;;;;;;;;;;;;;;;39.68;42.10;98745.84;5061611;28;19935;-77
2023/06/10 18:54:13;;;;;;;;;;;;;;;40.17;41.82;98753.34;5060512;28;19967;-77
2023/06/10 18:56:39;;;;;;;;;;;;;;;39.41;44.14;98772.59;5060741;28;20023;-78
2023/06/10 18:59:04;;;;;;;;;;;;;;;38.32;47.58;98794.00;5061569;28;19956;-78
2023/06/10 19:01:30;;;;;;;;;;;;;;;38.03;43.16;98775.09;5062017;28;20026;-77
2023/06/10 19:03:55;;;;;;;;;;;;;;;37.58;50.25;98802.44;5060283;28;19916;-77
2023/06/10 19:06:20;;;;;;;;;;;;;;;38.25;47.31;98786.06;5061944;28;20743;-77
2023/06/10 19:08:46;;;;;;;;;;;;;;;39.36;46.00;98775.19;5060737;28;19923;-77
2023/06/10 19:11:12;;;;;;;;;;;;;;;38.84;44.00;98769.84;5062490;28;19920;-78
2023/06/10 19:13:37;;;;;;;;;;;;;;;38.43;45.90;98782.44;5061080;28;19920;-78
2023/06/10 19:16:03;;;;;;;;;;;;;;;38.33;43.46;98771.44;5059149;28;20830;-78
2023/06/10 19:18:28;;;;;;;;;;;;;;;38.41;44.22;98774.59;5061514;28;20400;-78
2023/06/10 19:20:53;;;;;;;;;;;;;;;38.98;45.00;98773.94;5060696;28;19916;-78
2023/06/10 19:23:19;;;;;;;;;;;;;;;37.00;46.84;98801.94;5061635;28;19920;-78
2023/06/10 19:25:44;;;;;;;;;;;;;;;37.79;46.64;98791.13;5059009;28;19917;-77
2023/06/10 19:28:09;;;;;;;;;;;;;;;36.08;47.51;98822.41;5060694;28;19922;-78
2023/06/10 19:30:34;;;;;;;;;;;;;;;35.49;54.34;98848.53;5060802;28;20170;-78
2023/06/10 19:33:00;;;;;;;;;;;;;;;36.60;52.64;98831.88;5042277;28;20031;-76
2023/06/10 19:35:25;;;;;;;;;;;;;;;35.42;52.15;98831.69;5060544;28;19931;-77
2023/06/10 19:37:50;;;;;;;;;;;;;;;34.79;58.99;98859.91;5061018;28;19924;-77
2023/06/10 19:40:15;;;;;;;;;;;;;;;35.84;52.19;98807.97;5062544;28;20003;-77
2023/06/10 19:42:41;;;;;;;;;;;;;;;36.11;51.23;98816.66;5062059;28;19976;-78
2023/06/10 19:45:06;;;;;;;;;;;;;;;32.97;56.44;98860.72;5059626;28;19956;-79
2023/06/10 19:47:31;;;;;;;;;;;;;;;33.74;60.38;98865.81;5061030;28;19960;-78
2023/06/10 19:49:57;;;;;;;;;;;;;;;34.37;59.66;98851.28;5062565;28;20366;-78
2023/06/10 19:52:23;;;;;;;;;;;;;;;32.49;63.05;98888.06;5061690;28;19978;-78
2023/06/10 19:54:48;;;;;;;;;;;;;;;33.51;64.97;98878.66;5062320;28;19917;-78
2023/06/10 19:57:14;;;;;;;;;;;;;;;33.07;61.87;98856.72;5061324;28;19916;-77
2023/06/10 19:59:39;;;;;;;;;;;;;;;34.09;59.77;98843.44;5060364;28;19920;-78
2023/06/10 20:02:05;;;;;;;;;;;;;;;32.23;63.34;98868.19;5058124;28;19974;-77
2023/06/10 20:04:30;;;;;;;;;;;;;;;32.27;63.45;98864.13;5059501;28;19932;-79
2023/06/10 20:06:55;;;;;;;;;;;;;;;31.25;70.78;98902.31;5059772;28;19920;-77
2023/06/10 20:09:21;;;;;;;;;;;;;;;31.07;73.43;98912.50;5060376;28;19942;-78
2023/06/10 20:11:46;;;;;;;;;;;;;;;31.37;70.86;98891.19;5060975;28;20352;-78
2023/06/10 20:14:11;;;;;;;;;;;;;;;31.10;75.46;98909.47;5059333;28;20344;-77
2023/06/10 20:16:36;;;;;;;;;;;;;;;30.02;73.56;98908.72;5058995;28;20390;-77
2023/06/10 20:19:02;;;;;;;;;;;;;;;30.68;80.03;98916.19;5062255;28;19920;-78
2023/06/10 20:21:28;;;;;;;;;;;;;;;30.56;80.11;98917.63;5062287;28;19946;-78
2023/06/10 20:23:53;;;;;;;;;;;;;;;30.86;78.30;98921.19;5060254;28;19920;-78
2023/06/10 20:26:18;;;;;;;;;;;;;;;31.31;77.13;98905.22;5060205;28;19920;-78
2023/06/10 20:28:44;;;;;;;;;;;;;;;31.71;78.96;98914.56;5061372;28;19940;-78
2023/06/10 20:31:09;;;;;;;;;;;;;;;32.13;77.10;98896.16;5060565;28;20370;-78
2023/06/10 20:33:34;;;;;;;;;;;;;;;31.88;77.65;98899.97;5063031;28;19921;-78
2023/06/10 20:35:59;;;;;;;;;;;;;;;30.89;79.69;98922.66;5064080;28;19991;-78
2023/06/10 20:38:25;;;;;;;;;;;;;;;31.02;78.96;98909.56;5063742;28;19971;-78
2023/06/10 20:40:50;;;;;;;;;;;;;;;32.18;75.98;98888.41;5065105;28;19943;-77
2023/06/10 20:43:16;;;;;;;;;;;;;;;31.77;77.63;98907.66;5063914;28;19917;-77
2023/06/10 20:45:41;;;;;;;;;;;;;;;31.66;72.54;98879.69;5067646;28;20011;-79
2023/06/10 20:48:07;;;;;;;;;;;;;;;31.32;76.02;98906.91;5064003;28;19978;-78
2023/06/10 20:50:32;;;;;;;;;;;;;;;33.55;74.42;98882.56;5059238;28;19921;-78
2023/06/10 20:52:57;;;;;;;;;;;;;;;32.34;76.16;98898.81;5064189;28;19936;-78
2023/06/10 20:55:23;;;;;;;;;;;;;;;32.46;76.19;98904.47;5070485;28;19916;-78
2023/06/10 20:57:48;;;;;;;;;;;;;;;31.36;73.69;98901.03;5063223;28;19920;-78
2023/06/10 21:00:13;;;;;;;;;;;;;;;32.02;83.81;98938.31;5060324;28;19970;-77
2023/06/10 21:02:38;;;;;;;;;;;;;;;31.94;77.87;98908.25;5058971;28;20023;-77
2023/06/10 21:05:04;;;;;;;;;;;;;;;31.51;78.96;98919.66;5056560;28;19996;-77
2023/06/10 21:07:29;;;;;;;;;;;;;;;31.85;77.47;98915.53;5062909;28;19995;-78
2023/06/10 21:09:55;;;;;;;;;;;;;;;31.11;79.77;98940.38;5058748;28;20301;-77
2023/06/10 21:12:20;;;;;;;;;;;;;;;30.76;77.35;98920.59;5058788;28;21039;-78
2023/06/10 21:14:45;;;;;;;;;;;;;;;31.49;75.07;98902.22;5057474;28;19924;-77
2023/06/10 21:17:11;;;;;;;;;;;;;;;31.04;75.02;98923.47;5052579;28;19933;-78
2023/06/10 21:19:36;;;;;;;;;;;;;;;31.73;79.70;98931.19;5055421;28;19981;-78
2023/06/10 21:22:01;;;;;;;;;;;;;;;30.59;82.59;98957.13;5057857;28;19921;-77
2023/06/10 21:24:26;;;;;;;;;;;;;;;30.71;79.66;98945.06;5056166;28;19936;-78
2023/06/10 21:26:53;;;;;;;;;;;;;;;31.27;77.26;98921.56;5056396;28;19920;-77
2023/06/10 21:29:18;;;;;;;;;;;;;;;30.44;79.33;98933.97;5055446;28;19920;-77
2023/06/10 21:31:43;;;;;;;;;;;;;;;29.78;81.02;98936.22;5057514;28;20374;-77
2023/06/10 21:34:09;;;;;;;;;;;;;;;29.63;84.14;98950.38;5056159;28;19936;-79
2023/06/10 21:36:34;;;;;;;;;;;;;;;28.76;87.13;98981.06;5058086;28;20283;-77
2023/06/10 21:38:59;;;;;;;;;;;;;;;29.54;83.13;98936.31;5055912;28;20331;-78
2023/06/10 21:41:29;;;;;;;;;;;;;;;29.50;84.57;98949.09;5058315;28;20031;-77
2023/06/10 21:43:54;;;;;;;;;;;;;;;28.30;86.98;98963.94;5055719;28;20317;-77
2023/06/10 21:46:19;;;;;;;;;;;;;;;28.97;87.21;98958.50;5051027;28;19927;-77
2023/06/10 21:48:45;;;;;;;;;;;;;;;29.31;87.30;98957.44;5058678;28;19920;-78
2023/06/10 21:51:10;;;;;;;;;;;;;;;28.41;85.88;98954.84;5057812;28;19925;-77
2023/06/10 21:53:35;;;;;;;;;;;;;;;27.65;87.04;98962.75;5056676;28;20358;-77
2023/06/10 21:56:00;;;;;;;;;;;;;;;28.40;88.37;98955.84;5059817;28;19958;-76
2023/06/10 21:58:26;;;;;;;;;;;;;;;28.69;86.07;98945.63;5059463;28;19924;-77
2023/06/10 22:00:51;;;;;;;;;;;;;;;28.75;85.43;98936.16;5055811;28;19928;-77
2023/06/10 22:03:16;;;;;;;;;;;;;;;28.51;87.68;98958.19;5056204;28;19920;-78
2023/06/10 22:05:41;;;;;;;;;;;;;;;28.46;88.08;98957.81;5055522;28;19979;-79
2023/06/10 22:08:07;;;;;;;;;;;;;;;28.49;88.67;98953.06;5056635;28;19920;-78
2023/06/10 22:10:32;;;;;;;;;;;;;;;29.45;85.54;98926.75;5057083;28;19962;-78
2023/06/10 22:12:57;;;;;;;;;;;;;;;29.51;85.32;98924.19;5055190;28;19924;-77
2023/06/10 22:15:22;;;;;;;;;;;;;;;28.97;87.19;98947.91;5060449;28;19931;-77
2023/06/10 22:17:48;;;;;;;;;;;;;;;29.26;86.78;98944.69;5062267;28;20341;-78
2023/06/10 22:20:13;;;;;;;;;;;;;;;28.65;89.15;98969.97;5062737;28;19921;-78
2023/06/10 22:22:39;;;;;;;;;;;;;;;28.48;88.57;98961.16;5061445;28;19920;-78
2023/06/10 22:25:04;;;;;;;;;;;;;;;28.36;88.19;98969.41;5060742;28;19968;-77
2023/06/10 22:27:30;;;;;;;;;;;;;;;27.72;91.88;98981.47;5062752;28;19939;-77
2023/06/10 22:29:55;;;;;;;;;;;;;;;28.79;90.11;98956.03;5061872;28;20467;-77
2023/06/10 22:32:20;;;;;;;;;;;;;;;29.27;88.62;98943.72;5062660;28;19963;-78
2023/06/10 22:34:45;;;;;;;;;;;;;;;29.29;89.94;98964.78;5062037;28;19990;-77
2023/06/10 22:37:11;;;;;;;;;;;;;;;28.41;89.63;98960.16;5062329;28;19951;-77
2023/06/10 22:39:36;;;;;;;;;;;;;;;27.67;92.29;98979.31;5063263;28;19921;-78
2023/06/10 22:42:01;;;;;;;;;;;;;;;26.84;96.16;99002.72;5061537;28;19920;-77
2023/06/10 22:44:26;;;;;;;;;;;;;;;27.62;93.02;98964.88;5062714;28;19916;-77
2023/06/10 22:46:52;;;;;;;;;;;;;;;27.28;92.74;98960.44;5060435;28;19927;-77
2023/06/10 22:49:17;;;;;;;;;;;;;;;27.93;92.36;98952.78;5059429;28;20357;-77
2023/06/10 22:51:44;;;;;;;;;;;;;;;27.95;93.09;98961.38;5061225;28;19920;-77
2023/06/10 22:54:09;;;;;;;;;;;;;;;27.42;92.58;98954.56;5061476;28;19968;-78
2023/06/10 22:56:34;;;;;;;;;;;;;;;27.99;91.69;98953.16;5061630;28;19956;-77
2023/06/10 22:59:02;;;;;;;;;;;;;;;26.75;94.82;98978.03;5062659;28;20350;-77
2023/06/10 23:01:28;;;;;;;;;;;;;;;27.10;95.92;98973.69;5060158;28;19926;-77
2023/06/10 23:03:53;;;;;;;;;;;;;;;26.66;95.17;98969.25;5061536;28;20841;-77
2023/06/10 23:06:18;;;;;;;;;;;;;;;26.98;92.31;98957.25;5063724;28;19916;-77
2023/06/10 23:08:44;;;;;;;;;;;;;;;26.73;92.35;98953.63;5062397;28;19912;-77
2023/06/10 23:11:09;;;;;;;;;;;;;;;26.95;92.97;98957.56;5059666;28;19931;-77
2023/06/10 23:13:34;;;;;;;;;;;;;;;27.19;91.39;98948.97;5061280;28;20143;-77
2023/06/10 23:15:59;;;;;;;;;;;;;;;27.49;93.01;98966.16;5059598;28;19955;-77
2023/06/10 23:18:25;;;;;;;;;;;;;;;27.00;91.39;98951.81;5059339;28;19924;-78
2023/06/10 23:20:50;;;;;;;;;;;;;;;26.90;92.10;98947.44;5062944;28;19930;-78
2023/06/10 23:23:16;;;;;;;;;;;;;;;26.61;92.52;98954.81;5060239;28;19924;-77
2023/06/10 23:25:44;;;;;;;;;;;;;;;26.83;92.34;98964.09;5059937;28;19929;-78
2023/06/10 23:28:10;;;;;;;;;;;;;;;27.07;91.79;98955.47;5059630;28;19916;-77
2023/06/10 23:30:35;;;;;;;;;;;;;;;27.17;90.36;98956.22;5061121;28;19969;-77
2023/06/10 23:33:00;;;;;;;;;;;;;;;27.15;91.69;98963.47;5059542;28;19928;-76
2023/06/10 23:35:25;;;;;;;;;;;;;;;28.12;88.26;98934.94;5061106;28;19932;-76
2023/06/10 23:37:50;;;;;;;;;;;;;;;28.00;88.33;98941.56;5060857;28;19967;-77
2023/06/10 23:40:17;;;;;;;;;;;;;;;28.70;85.02;98920.75;5061670;28;19955;-77
2023/06/10 23:42:43;;;;;;;;;;;;;;;28.24;86.06;98938.94;5058404;28;20404;-77
2023/06/10 23:45:08;;;;;;;;;;;;;;;28.21;86.24;98938.44;5059313;28;20050;-77
2023/06/10 23:47:33;;;;;;;;;;;;;;;28.04;86.40;98937.59;5058075;28;20279;-77
2023/06/10 23:49:59;;;;;;;;;;;;;;;28.77;85.06;98915.63;5059409;28;19974;-77
2023/06/10 23:52:24;;;;;;;;;;;;;;;28.41;81.24;98907.16;5058622;28;19982;-77
2023/06/10 23:54:49;;;;;;;;;;;;;;;29.34;81.43;98906.72;5059144;28;19924;-77
2023/06/10 23:57:15;;;;;;;;;;;;;;;27.72;81.31;98929.38;5059341;28;19974;-77
2023/06/10 23:59:40;;;;;;;;;;;;;;;29.41;81.03;98907.69;5058607;28;20487;-77
